sensor_id;sensor_type;location;lat;lon;timestamp;pressure;altitude;pressure_sealevel;temperature;humidity
45991;BME280;31721;41.740;-88.000;2023-03-26T00:01:51;98308.07;;;6.37;36.61
45991;BME280;31721;41.740;-88.000;2023-03-26T00:04:19;98307.65;;;6.16;36.92
45991;BME280;31721;41.740;-88.000;2023-03-26T00:06:47;98310.85;;;6.25;37.09
45991;BME280;31721;41.740;-88.000;2023-03-26T00:09:18;98313.71;;;6.31;36.79
45991;BME280;31721;41.740;-88.000;2023-03-26T00:11:46;98316.99;;;6.00;37.15
45991;BME280;31721;41.740;-88.000;2023-03-26T00:14:14;98319.20;;;6.22;37.13
45991;BME280;31721;41.740;-88.000;2023-03-26T00:16:43;98322.20;;;6.11;37.16
45991;BME280;31721;41.740;-88.000;2023-03-26T00:19:11;98321.33;;;5.91;37.39
45991;BME280;31721;41.740;-88.000;2023-03-26T00:21:40;98322.87;;;5.70;37.51
45991;BME280;31721;41.740;-88.000;2023-03-26T00:24:11;98327.60;;;5.79;37.58
45991;BME280;31721;41.740;-88.000;2023-03-26T00:26:40;98331.28;;;5.73;37.63
45991;BME280;31721;41.740;-88.000;2023-03-26T00:29:08;98331.40;;;5.73;37.85
45991;BME280;31721;41.740;-88.000;2023-03-26T00:31:36;98335.77;;;5.73;38.10
45991;BME280;31721;41.740;-88.000;2023-03-26T00:34:04;98334.52;;;5.78;38.17
45991;BME280;31721;41.740;-88.000;2023-03-26T00:36:33;98334.24;;;5.82;38.16
45991;BME280;31721;41.740;-88.000;2023-03-26T00:39:01;98335.15;;;5.57;38.46
45991;BME280;31721;41.740;-88.000;2023-03-26T00:41:29;98337.98;;;5.77;38.50
45991;BME280;31721;41.740;-88.000;2023-03-26T00:43:58;98338.66;;;5.85;38.50
45991;BME280;31721;41.740;-88.000;2023-03-26T00:46:28;98341.19;;;5.78;38.51
45991;BME280;31721;41.740;-88.000;2023-03-26T00:48:56;98348.59;;;5.78;38.50
45991;BME280;31721;41.740;-88.000;2023-03-26T00:51:25;98350.40;;;5.96;38.31
45991;BME280;31721;41.740;-88.000;2023-03-26T00:53:55;98357.94;;;6.02;38.34
45991;BME280;31721;41.740;-88.000;2023-03-26T00:56:23;98355.72;;;5.87;38.53
45991;BME280;31721;41.740;-88.000;2023-03-26T00:58:51;98353.48;;;5.66;38.76
45991;BME280;31721;41.740;-88.000;2023-03-26T01:01:23;98355.29;;;5.47;38.91
45991;BME280;31721;41.740;-88.000;2023-03-26T01:03:51;98352.08;;;5.70;39.15
45991;BME280;31721;41.740;-88.000;2023-03-26T01:06:23;98355.50;;;5.62;39.41
45991;BME280;31721;41.740;-88.000;2023-03-26T01:08:51;98361.73;;;5.66;39.48
45991;BME280;31721;41.740;-88.000;2023-03-26T01:11:22;98367.39;;;5.74;39.45
45991;BME280;31721;41.740;-88.000;2023-03-26T01:13:55;98372.44;;;5.54;39.53
45991;BME280;31721;41.740;-88.000;2023-03-26T01:16:27;98378.05;;;5.58;39.73
45991;BME280;31721;41.740;-88.000;2023-03-26T01:18:57;98382.76;;;5.52;40.15
45991;BME280;31721;41.740;-88.000;2023-03-26T01:21:28;98387.31;;;5.42;40.15
45991;BME280;31721;41.740;-88.000;2023-03-26T01:23:58;98396.95;;;5.42;40.56
45991;BME280;31721;41.740;-88.000;2023-03-26T01:26:40;98402.39;;;5.30;40.59
45991;BME280;31721;41.740;-88.000;2023-03-26T01:29:18;98406.71;;;5.15;40.96
45991;BME280;31721;41.740;-88.000;2023-03-26T01:31:54;98410.48;;;5.10;41.04
45991;BME280;31721;41.740;-88.000;2023-03-26T01:34:29;98411.88;;;5.08;41.20
45991;BME280;31721;41.740;-88.000;2023-03-26T01:37:11;98413.58;;;4.94;41.44
45991;BME280;31721;41.740;-88.000;2023-03-26T01:39:49;98417.86;;;5.02;41.65
45991;BME280;31721;41.740;-88.000;2023-03-26T01:42:27;98419.60;;;5.03;41.70
45991;BME280;31721;41.740;-88.000;2023-03-26T01:45:02;98418.91;;;5.06;41.92
45991;BME280;31721;41.740;-88.000;2023-03-26T01:47:34;98423.56;;;4.97;42.18
45991;BME280;31721;41.740;-88.000;2023-03-26T01:50:04;98426.74;;;4.89;42.51
45991;BME280;31721;41.740;-88.000;2023-03-26T01:52:33;98428.94;;;4.95;42.55
45991;BME280;31721;41.740;-88.000;2023-03-26T01:55:01;98430.97;;;4.87;42.72
45991;BME280;31721;41.740;-88.000;2023-03-26T01:57:35;98432.56;;;4.86;42.79
45991;BME280;31721;41.740;-88.000;2023-03-26T02:00:13;98439.52;;;4.85;42.86
45991;BME280;31721;41.740;-88.000;2023-03-26T02:02:55;98441.29;;;4.96;42.91
45991;BME280;31721;41.740;-88.000;2023-03-26T02:05:28;98446.41;;;4.82;43.17
45991;BME280;31721;41.740;-88.000;2023-03-26T02:08:04;98446.01;;;4.80;43.16
45991;BME280;31721;41.740;-88.000;2023-03-26T02:10:39;98446.67;;;4.64;43.43
45991;BME280;31721;41.740;-88.000;2023-03-26T02:13:09;98446.62;;;4.72;43.39
45991;BME280;31721;41.740;-88.000;2023-03-26T02:15:37;98449.25;;;4.71;43.42
45991;BME280;31721;41.740;-88.000;2023-03-26T02:18:06;98454.47;;;4.73;43.86
45991;BME280;31721;41.740;-88.000;2023-03-26T02:20:34;98456.09;;;4.73;43.94
45991;BME280;31721;41.740;-88.000;2023-03-26T02:23:02;98461.29;;;4.69;43.96
45991;BME280;31721;41.740;-88.000;2023-03-26T02:25:30;98468.58;;;4.56;44.05
45991;BME280;31721;41.740;-88.000;2023-03-26T02:27:58;98471.79;;;4.68;44.16
45991;BME280;31721;41.740;-88.000;2023-03-26T02:30:26;98474.94;;;4.53;44.07
45991;BME280;31721;41.740;-88.000;2023-03-26T02:32:54;98471.37;;;4.38;43.98
45991;BME280;31721;41.740;-88.000;2023-03-26T02:35:23;98470.89;;;4.30;44.19
45991;BME280;31721;41.740;-88.000;2023-03-26T02:37:51;98476.21;;;4.15;44.56
45991;BME280;31721;41.740;-88.000;2023-03-26T02:40:19;98480.91;;;4.29;44.83
45991;BME280;31721;41.740;-88.000;2023-03-26T02:42:47;98485.62;;;4.41;45.08
45991;BME280;31721;41.740;-88.000;2023-03-26T02:45:15;98488.37;;;4.41;44.92
45991;BME280;31721;41.740;-88.000;2023-03-26T02:47:43;98492.69;;;4.34;45.21
45991;BME280;31721;41.740;-88.000;2023-03-26T02:50:11;98496.15;;;4.28;45.42
45991;BME280;31721;41.740;-88.000;2023-03-26T02:52:39;98503.93;;;4.40;45.46
45991;BME280;31721;41.740;-88.000;2023-03-26T02:55:07;98506.24;;;4.48;45.55
45991;BME280;31721;41.740;-88.000;2023-03-26T02:57:35;98507.33;;;4.41;45.57
45991;BME280;31721;41.740;-88.000;2023-03-26T03:00:03;98511.11;;;4.49;45.62
45991;BME280;31721;41.740;-88.000;2023-03-26T03:02:31;98509.66;;;4.44;45.59
45991;BME280;31721;41.740;-88.000;2023-03-26T03:04:59;98512.33;;;4.27;45.72
45991;BME280;31721;41.740;-88.000;2023-03-26T03:07:27;98514.84;;;4.22;46.00
45991;BME280;31721;41.740;-88.000;2023-03-26T03:09:55;98516.63;;;4.28;46.06
45991;BME280;31721;41.740;-88.000;2023-03-26T03:12:23;98518.70;;;4.27;46.22
45991;BME280;31721;41.740;-88.000;2023-03-26T03:14:51;98516.65;;;4.30;46.39
45991;BME280;31721;41.740;-88.000;2023-03-26T03:17:19;98521.03;;;4.26;46.13
45991;BME280;31721;41.740;-88.000;2023-03-26T03:19:47;98523.40;;;4.20;46.29
45991;BME280;31721;41.740;-88.000;2023-03-26T03:22:16;98528.08;;;4.40;46.62
45991;BME280;31721;41.740;-88.000;2023-03-26T03:24:44;98525.00;;;4.44;46.34
45991;BME280;31721;41.740;-88.000;2023-03-26T03:27:13;98528.37;;;4.37;46.26
45991;BME280;31721;41.740;-88.000;2023-03-26T03:29:40;98529.41;;;4.29;46.28
45991;BME280;31721;41.740;-88.000;2023-03-26T03:32:08;98529.62;;;4.23;46.24
45991;BME280;31721;41.740;-88.000;2023-03-26T03:34:36;98533.42;;;4.29;46.50
45991;BME280;31721;41.740;-88.000;2023-03-26T03:37:04;98535.73;;;4.29;46.54
45991;BME280;31721;41.740;-88.000;2023-03-26T03:39:32;98534.36;;;4.38;46.45
45991;BME280;31721;41.740;-88.000;2023-03-26T03:42:00;98538.45;;;4.46;46.30
45991;BME280;31721;41.740;-88.000;2023-03-26T03:44:29;98542.00;;;4.39;46.06
45991;BME280;31721;41.740;-88.000;2023-03-26T03:46:56;98542.68;;;4.28;46.19
45991;BME280;31721;41.740;-88.000;2023-03-26T03:49:25;98542.12;;;4.28;46.16
45991;BME280;31721;41.740;-88.000;2023-03-26T03:51:53;98542.64;;;4.40;46.32
45991;BME280;31721;41.740;-88.000;2023-03-26T03:54:21;98543.23;;;4.23;46.47
45991;BME280;31721;41.740;-88.000;2023-03-26T03:56:50;98549.84;;;4.23;46.46
45991;BME280;31721;41.740;-88.000;2023-03-26T03:59:18;98556.98;;;4.39;46.33
45991;BME280;31721;41.740;-88.000;2023-03-26T04:01:46;98560.99;;;4.46;46.11
45991;BME280;31721;41.740;-88.000;2023-03-26T04:04:14;98565.59;;;4.46;46.19
45991;BME280;31721;41.740;-88.000;2023-03-26T04:06:43;98563.50;;;4.51;46.23
45991;BME280;31721;41.740;-88.000;2023-03-26T04:09:11;98565.50;;;4.23;46.34
45991;BME280;31721;41.740;-88.000;2023-03-26T04:11:39;98565.15;;;4.22;46.32
45991;BME280;31721;41.740;-88.000;2023-03-26T04:14:07;98569.16;;;4.22;46.54
45991;BME280;31721;41.740;-88.000;2023-03-26T04:16:35;98569.52;;;4.09;46.57
45991;BME280;31721;41.740;-88.000;2023-03-26T04:19:04;98571.82;;;4.07;46.40
45991;BME280;31721;41.740;-88.000;2023-03-26T04:21:32;98574.05;;;4.18;46.83
45991;BME280;31721;41.740;-88.000;2023-03-26T04:24:00;98581.35;;;4.06;46.67
45991;BME280;31721;41.740;-88.000;2023-03-26T04:26:28;98589.27;;;4.02;46.56
45991;BME280;31721;41.740;-88.000;2023-03-26T04:28:58;98593.51;;;4.03;46.99
45991;BME280;31721;41.740;-88.000;2023-03-26T04:31:28;98597.01;;;4.02;46.94
45991;BME280;31721;41.740;-88.000;2023-03-26T04:33:58;98601.83;;;4.05;46.96
45991;BME280;31721;41.740;-88.000;2023-03-26T04:36:29;98606.10;;;4.17;46.80
45991;BME280;31721;41.740;-88.000;2023-03-26T04:38:57;98605.66;;;4.14;46.73
45991;BME280;31721;41.740;-88.000;2023-03-26T04:41:27;98611.76;;;4.28;46.91
45991;BME280;31721;41.740;-88.000;2023-03-26T04:43:55;98614.77;;;4.39;46.80
45991;BME280;31721;41.740;-88.000;2023-03-26T04:46:23;98613.02;;;4.38;46.69
45991;BME280;31721;41.740;-88.000;2023-03-26T04:48:53;98617.21;;;4.47;46.51
45991;BME280;31721;41.740;-88.000;2023-03-26T04:51:26;98617.31;;;4.36;46.78
45991;BME280;31721;41.740;-88.000;2023-03-26T04:53:58;98616.61;;;4.42;46.82
45991;BME280;31721;41.740;-88.000;2023-03-26T04:56:35;98620.23;;;4.31;46.84
45991;BME280;31721;41.740;-88.000;2023-03-26T04:59:07;98624.39;;;4.08;47.07
45991;BME280;31721;41.740;-88.000;2023-03-26T05:01:37;98626.21;;;4.11;47.30
45991;BME280;31721;41.740;-88.000;2023-03-26T05:04:06;98627.55;;;4.09;47.06
45991;BME280;31721;41.740;-88.000;2023-03-26T05:06:33;98624.82;;;4.06;47.26
45991;BME280;31721;41.740;-88.000;2023-03-26T05:09:01;98627.34;;;3.96;47.36
45991;BME280;31721;41.740;-88.000;2023-03-26T05:11:29;98628.22;;;3.91;47.38
45991;BME280;31721;41.740;-88.000;2023-03-26T05:13:57;98629.32;;;3.96;47.50
45991;BME280;31721;41.740;-88.000;2023-03-26T05:16:25;98630.31;;;3.97;47.49
45991;BME280;31721;41.740;-88.000;2023-03-26T05:18:53;98623.36;;;3.66;47.24
45991;BME280;31721;41.740;-88.000;2023-03-26T05:21:21;98609.26;;;3.38;47.60
45991;BME280;31721;41.740;-88.000;2023-03-26T05:23:50;98619.60;;;3.43;47.92
45991;BME280;31721;41.740;-88.000;2023-03-26T05:26:18;98630.53;;;3.48;48.05
45991;BME280;31721;41.740;-88.000;2023-03-26T05:28:46;98636.64;;;3.87;48.32
45991;BME280;31721;41.740;-88.000;2023-03-26T05:31:14;98645.09;;;3.83;48.13
45991;BME280;31721;41.740;-88.000;2023-03-26T05:33:44;98651.69;;;3.82;48.25
45991;BME280;31721;41.740;-88.000;2023-03-26T05:36:13;98657.00;;;3.74;48.29
45991;BME280;31721;41.740;-88.000;2023-03-26T05:38:42;98660.42;;;3.72;48.26
45991;BME280;31721;41.740;-88.000;2023-03-26T05:41:10;98662.04;;;3.77;48.22
45991;BME280;31721;41.740;-88.000;2023-03-26T05:43:38;98659.57;;;3.65;48.16
45991;BME280;31721;41.740;-88.000;2023-03-26T05:46:06;98652.19;;;3.56;48.05
45991;BME280;31721;41.740;-88.000;2023-03-26T05:48:34;98656.99;;;3.17;47.94
45991;BME280;31721;41.740;-88.000;2023-03-26T05:51:02;98662.67;;;3.26;48.64
45991;BME280;31721;41.740;-88.000;2023-03-26T05:53:31;98663.44;;;3.56;48.61
45991;BME280;31721;41.740;-88.000;2023-03-26T05:55:58;98661.64;;;3.36;48.31
45991;BME280;31721;41.740;-88.000;2023-03-26T05:58:28;98663.77;;;3.25;48.93
45991;BME280;31721;41.740;-88.000;2023-03-26T06:00:57;98672.08;;;3.28;48.87
45991;BME280;31721;41.740;-88.000;2023-03-26T06:03:25;98677.51;;;3.30;49.05
45991;BME280;31721;41.740;-88.000;2023-03-26T06:05:52;98683.31;;;3.48;48.91
45991;BME280;31721;41.740;-88.000;2023-03-26T06:08:21;98675.03;;;3.30;48.85
45991;BME280;31721;41.740;-88.000;2023-03-26T06:10:49;98676.49;;;3.22;48.73
45991;BME280;31721;41.740;-88.000;2023-03-26T06:13:17;98680.11;;;3.34;48.95
45991;BME280;31721;41.740;-88.000;2023-03-26T06:15:46;98675.47;;;3.34;49.02
45991;BME280;31721;41.740;-88.000;2023-03-26T06:18:14;98675.14;;;3.32;48.86
45991;BME280;31721;41.740;-88.000;2023-03-26T06:20:42;98684.74;;;3.31;49.04
45991;BME280;31721;41.740;-88.000;2023-03-26T06:23:11;98686.91;;;3.32;49.11
45991;BME280;31721;41.740;-88.000;2023-03-26T06:25:38;98683.62;;;3.14;49.31
45991;BME280;31721;41.740;-88.000;2023-03-26T06:28:06;98682.74;;;3.24;49.18
45991;BME280;31721;41.740;-88.000;2023-03-26T06:30:33;98683.53;;;3.23;49.17
45991;BME280;31721;41.740;-88.000;2023-03-26T06:33:01;98686.46;;;3.37;49.44
45991;BME280;31721;41.740;-88.000;2023-03-26T06:35:29;98693.24;;;3.40;49.47
45991;BME280;31721;41.740;-88.000;2023-03-26T06:37:57;98695.12;;;3.34;49.17
45991;BME280;31721;41.740;-88.000;2023-03-26T06:40:25;98688.78;;;3.17;49.06
45991;BME280;31721;41.740;-88.000;2023-03-26T06:42:53;98689.01;;;3.05;49.27
45991;BME280;31721;41.740;-88.000;2023-03-26T06:45:20;98690.32;;;3.03;49.37
45991;BME280;31721;41.740;-88.000;2023-03-26T06:47:48;98686.93;;;2.99;49.55
45991;BME280;31721;41.740;-88.000;2023-03-26T06:50:15;98693.36;;;2.90;49.54
45991;BME280;31721;41.740;-88.000;2023-03-26T06:52:44;98697.46;;;2.68;49.88
45991;BME280;31721;41.740;-88.000;2023-03-26T06:55:13;98694.89;;;2.80;50.11
45991;BME280;31721;41.740;-88.000;2023-03-26T06:57:41;98699.89;;;2.75;50.47
45991;BME280;31721;41.740;-88.000;2023-03-26T07:00:10;98695.00;;;2.70;50.47
45991;BME280;31721;41.740;-88.000;2023-03-26T07:02:39;98693.23;;;2.62;50.63
45991;BME280;31721;41.740;-88.000;2023-03-26T07:05:07;98699.54;;;2.53;50.54
45991;BME280;31721;41.740;-88.000;2023-03-26T07:07:35;98704.94;;;2.58;50.74
45991;BME280;31721;41.740;-88.000;2023-03-26T07:10:04;98710.56;;;2.47;50.85
45991;BME280;31721;41.740;-88.000;2023-03-26T07:12:31;98711.47;;;2.46;51.00
45991;BME280;31721;41.740;-88.000;2023-03-26T07:15:00;98708.72;;;2.41;50.89
45991;BME280;31721;41.740;-88.000;2023-03-26T07:17:28;98707.48;;;2.40;50.93
45991;BME280;31721;41.740;-88.000;2023-03-26T07:19:56;98709.06;;;2.36;50.97
45991;BME280;31721;41.740;-88.000;2023-03-26T07:22:24;98704.70;;;2.35;51.02
45991;BME280;31721;41.740;-88.000;2023-03-26T07:24:53;98705.43;;;2.35;50.90
45991;BME280;31721;41.740;-88.000;2023-03-26T07:27:33;98710.16;;;2.33;50.99
45991;BME280;31721;41.740;-88.000;2023-03-26T07:30:07;98712.05;;;2.42;51.21
45991;BME280;31721;41.740;-88.000;2023-03-26T07:32:40;98715.12;;;2.44;51.04
45991;BME280;31721;41.740;-88.000;2023-03-26T07:35:18;98711.27;;;2.31;50.90
45991;BME280;31721;41.740;-88.000;2023-03-26T07:37:55;98712.50;;;2.25;50.95
45991;BME280;31721;41.740;-88.000;2023-03-26T07:40:42;98711.56;;;2.16;50.95
45991;BME280;31721;41.740;-88.000;2023-03-26T07:43:21;98703.49;;;2.01;50.95
45991;BME280;31721;41.740;-88.000;2023-03-26T07:45:54;98703.87;;;1.97;51.12
45991;BME280;31721;41.740;-88.000;2023-03-26T07:48:25;98695.23;;;1.94;51.29
45991;BME280;31721;41.740;-88.000;2023-03-26T07:50:54;98694.56;;;1.91;51.49
45991;BME280;31721;41.740;-88.000;2023-03-26T07:53:22;98694.45;;;1.73;51.31
45991;BME280;31721;41.740;-88.000;2023-03-26T07:55:56;98690.55;;;1.70;51.35
45991;BME280;31721;41.740;-88.000;2023-03-26T07:58:40;98684.20;;;1.66;51.75
45991;BME280;31721;41.740;-88.000;2023-03-26T08:01:18;98684.07;;;1.64;51.57
45991;BME280;31721;41.740;-88.000;2023-03-26T08:04:02;98691.85;;;1.64;51.71
45991;BME280;31721;41.740;-88.000;2023-03-26T08:06:36;98689.48;;;1.64;51.71
45991;BME280;31721;41.740;-88.000;2023-03-26T08:09:12;98684.45;;;1.63;51.61
45991;BME280;31721;41.740;-88.000;2023-03-26T08:11:47;98689.46;;;1.63;51.60
45991;BME280;31721;41.740;-88.000;2023-03-26T08:14:33;98681.64;;;1.59;51.52
45991;BME280;31721;41.740;-88.000;2023-03-26T08:17:09;98684.04;;;1.69;51.54
45991;BME280;31721;41.740;-88.000;2023-03-26T08:19:47;98686.80;;;1.68;51.51
45991;BME280;31721;41.740;-88.000;2023-03-26T08:22:20;98682.84;;;1.69;51.61
45991;BME280;31721;41.740;-88.000;2023-03-26T08:25:00;98686.57;;;1.65;51.65
45991;BME280;31721;41.740;-88.000;2023-03-26T08:27:36;98687.89;;;1.49;51.72
45991;BME280;31721;41.740;-88.000;2023-03-26T08:30:10;98688.20;;;1.40;51.77
45991;BME280;31721;41.740;-88.000;2023-03-26T08:32:49;98682.21;;;1.29;51.65
45991;BME280;31721;41.740;-88.000;2023-03-26T08:35:19;98675.88;;;1.29;52.00
45991;BME280;31721;41.740;-88.000;2023-03-26T08:37:46;98675.38;;;1.24;52.06
45991;BME280;31721;41.740;-88.000;2023-03-26T08:40:21;98673.53;;;1.24;51.98
45991;BME280;31721;41.740;-88.000;2023-03-26T08:43:14;98673.76;;;1.32;52.11
45991;BME280;31721;41.740;-88.000;2023-03-26T08:45:57;98677.74;;;1.31;52.02
45991;BME280;31721;41.740;-88.000;2023-03-26T08:49:54;98672.32;;;1.14;52.11
45991;BME280;31721;41.740;-88.000;2023-03-26T08:52:53;98682.07;;;1.31;52.10
45991;BME280;31721;41.740;-88.000;2023-03-26T08:55:39;98683.08;;;1.29;52.05
45991;BME280;31721;41.740;-88.000;2023-03-26T08:58:41;98687.51;;;1.26;52.05
45991;BME280;31721;41.740;-88.000;2023-03-26T09:01:29;98684.07;;;1.23;52.06
45991;BME280;31721;41.740;-88.000;2023-03-26T09:04:19;98683.36;;;1.15;52.12
45991;BME280;31721;41.740;-88.000;2023-03-26T09:07:13;98683.68;;;1.19;52.23
45991;BME280;31721;41.740;-88.000;2023-03-26T09:14:46;98695.81;;;0.97;52.37
45991;BME280;31721;41.740;-88.000;2023-03-26T09:22:23;98704.99;;;0.97;52.61
45991;BME280;31721;41.740;-88.000;2023-03-26T09:25:21;98705.97;;;1.03;52.64
45991;BME280;31721;41.740;-88.000;2023-03-26T09:28:10;98706.93;;;1.01;52.50
45991;BME280;31721;41.740;-88.000;2023-03-26T09:30:57;98711.24;;;1.01;52.73
45991;BME280;31721;41.740;-88.000;2023-03-26T09:34:16;98717.61;;;1.00;53.02
45991;BME280;31721;41.740;-88.000;2023-03-26T09:36:53;98727.51;;;1.14;53.20
45991;BME280;31721;41.740;-88.000;2023-03-26T09:39:33;98727.75;;;1.14;53.17
45991;BME280;31721;41.740;-88.000;2023-03-26T09:42:08;98728.38;;;1.15;53.08
45991;BME280;31721;41.740;-88.000;2023-03-26T09:45:58;98734.13;;;1.10;53.19
45991;BME280;31721;41.740;-88.000;2023-03-26T09:48:43;98749.85;;;1.15;53.52
45991;BME280;31721;41.740;-88.000;2023-03-26T09:51:36;98754.23;;;1.25;53.39
45991;BME280;31721;41.740;-88.000;2023-03-26T09:54:49;98756.61;;;1.21;53.53
45991;BME280;31721;41.740;-88.000;2023-03-26T09:57:31;98765.84;;;1.19;53.72
45991;BME280;31721;41.740;-88.000;2023-03-26T10:00:14;98763.08;;;1.16;53.84
45991;BME280;31721;41.740;-88.000;2023-03-26T10:02:59;98774.17;;;1.11;54.11
45991;BME280;31721;41.740;-88.000;2023-03-26T10:05:39;98777.56;;;1.15;54.27
45991;BME280;31721;41.740;-88.000;2023-03-26T10:08:23;98773.74;;;1.20;54.46
45991;BME280;31721;41.740;-88.000;2023-03-26T10:11:00;98759.89;;;1.15;54.37
45991;BME280;31721;41.740;-88.000;2023-03-26T10:13:35;98766.63;;;1.27;54.59
45991;BME280;31721;41.740;-88.000;2023-03-26T10:16:18;98769.19;;;1.36;54.29
45991;BME280;31721;41.740;-88.000;2023-03-26T10:18:58;98778.76;;;1.63;54.35
45991;BME280;31721;41.740;-88.000;2023-03-26T10:21:37;98773.47;;;1.56;54.14
45991;BME280;31721;41.740;-88.000;2023-03-26T10:24:29;98765.65;;;1.61;54.01
45991;BME280;31721;41.740;-88.000;2023-03-26T10:27:12;98770.69;;;1.42;54.13
45991;BME280;31721;41.740;-88.000;2023-03-26T10:29:58;98776.08;;;1.52;54.14
45991;BME280;31721;41.740;-88.000;2023-03-26T10:32:36;98788.22;;;1.55;54.18
45991;BME280;31721;41.740;-88.000;2023-03-26T10:35:14;98792.10;;;1.58;54.19
45991;BME280;31721;41.740;-88.000;2023-03-26T10:37:56;98794.65;;;1.83;54.31
45991;BME280;31721;41.740;-88.000;2023-03-26T10:40:31;98796.08;;;1.71;54.08
45991;BME280;31721;41.740;-88.000;2023-03-26T10:43:19;98799.16;;;1.62;54.07
45991;BME280;31721;41.740;-88.000;2023-03-26T10:46:11;98797.28;;;1.60;54.51
45991;BME280;31721;41.740;-88.000;2023-03-26T10:48:58;98800.01;;;1.69;54.47
45991;BME280;31721;41.740;-88.000;2023-03-26T10:51:45;98792.36;;;1.58;54.63
45991;BME280;31721;41.740;-88.000;2023-03-26T10:54:20;98792.20;;;1.68;54.80
45991;BME280;31721;41.740;-88.000;2023-03-26T10:56:51;98798.26;;;1.74;54.97
45991;BME280;31721;41.740;-88.000;2023-03-26T10:59:23;98796.77;;;1.72;54.81
45991;BME280;31721;41.740;-88.000;2023-03-26T11:01:59;98797.85;;;1.81;54.84
45991;BME280;31721;41.740;-88.000;2023-03-26T11:04:39;98790.33;;;1.79;54.87
45991;BME280;31721;41.740;-88.000;2023-03-26T11:07:17;98778.74;;;1.65;54.73
45991;BME280;31721;41.740;-88.000;2023-03-26T11:09:52;98783.54;;;1.83;54.90
45991;BME280;31721;41.740;-88.000;2023-03-26T11:12:28;98787.42;;;1.86;54.87
45991;BME280;31721;41.740;-88.000;2023-03-26T11:15:09;98796.26;;;1.89;54.67
45991;BME280;31721;41.740;-88.000;2023-03-26T11:17:47;98809.71;;;2.12;54.66
45991;BME280;31721;41.740;-88.000;2023-03-26T11:20:21;98813.04;;;2.03;54.62
45991;BME280;31721;41.740;-88.000;2023-03-26T11:23:05;98818.89;;;1.97;54.59
45991;BME280;31721;41.740;-88.000;2023-03-26T11:25:47;98819.39;;;1.94;54.55
45991;BME280;31721;41.740;-88.000;2023-03-26T11:28:29;98814.51;;;1.91;54.77
45991;BME280;31721;41.740;-88.000;2023-03-26T11:31:04;98826.16;;;2.02;54.81
45991;BME280;31721;41.740;-88.000;2023-03-26T11:33:38;98830.14;;;2.03;54.82
45991;BME280;31721;41.740;-88.000;2023-03-26T11:36:12;98835.46;;;2.03;54.83
45991;BME280;31721;41.740;-88.000;2023-03-26T11:38:42;98835.05;;;2.03;54.89
45991;BME280;31721;41.740;-88.000;2023-03-26T11:41:13;98831.11;;;2.04;55.03
45991;BME280;31721;41.740;-88.000;2023-03-26T11:43:44;98822.11;;;1.92;54.83
45991;BME280;31721;41.740;-88.000;2023-03-26T11:46:13;98827.83;;;1.85;54.81
45991;BME280;31721;41.740;-88.000;2023-03-26T11:48:46;98822.89;;;1.87;55.17
45991;BME280;31721;41.740;-88.000;2023-03-26T11:51:19;98815.39;;;1.80;54.94
45991;BME280;31721;41.740;-88.000;2023-03-26T11:53:49;98805.37;;;1.78;55.22
45991;BME280;31721;41.740;-88.000;2023-03-26T11:56:23;98800.72;;;1.75;55.10
45991;BME280;31721;41.740;-88.000;2023-03-26T11:58:55;98809.67;;;1.78;55.07
45991;BME280;31721;41.740;-88.000;2023-03-26T12:01:27;98818.09;;;1.87;55.25
45991;BME280;31721;41.740;-88.000;2023-03-26T12:03:57;98820.31;;;1.84;55.12
45991;BME280;31721;41.740;-88.000;2023-03-26T12:06:29;98824.89;;;1.87;55.09
45991;BME280;31721;41.740;-88.000;2023-03-26T12:08:57;98833.63;;;1.82;55.14
45991;BME280;31721;41.740;-88.000;2023-03-26T12:11:27;98839.89;;;1.94;54.94
45991;BME280;31721;41.740;-88.000;2023-03-26T12:14:00;98843.27;;;1.86;54.78
45991;BME280;31721;41.740;-88.000;2023-03-26T12:16:28;98848.02;;;1.94;54.89
45991;BME280;31721;41.740;-88.000;2023-03-26T12:19:00;98855.42;;;1.95;54.89
45991;BME280;31721;41.740;-88.000;2023-03-26T12:21:28;98855.71;;;1.94;54.94
45991;BME280;31721;41.740;-88.000;2023-03-26T12:23:58;98859.30;;;1.86;54.86
45991;BME280;31721;41.740;-88.000;2023-03-26T12:26:34;98860.45;;;1.95;55.00
45991;BME280;31721;41.740;-88.000;2023-03-26T12:29:07;98856.42;;;1.80;54.95
45991;BME280;31721;41.740;-88.000;2023-03-26T12:31:50;98860.40;;;1.86;55.24
45991;BME280;31721;41.740;-88.000;2023-03-26T12:34:20;98867.28;;;1.90;55.15
45991;BME280;31721;41.740;-88.000;2023-03-26T12:36:52;98869.31;;;1.93;55.27
45991;BME280;31721;41.740;-88.000;2023-03-26T12:39:31;98866.90;;;1.90;55.16
45991;BME280;31721;41.740;-88.000;2023-03-26T12:42:01;98870.42;;;1.98;55.37
45991;BME280;31721;41.740;-88.000;2023-03-26T12:44:32;98871.02;;;1.93;55.21
45991;BME280;31721;41.740;-88.000;2023-03-26T12:47:10;98872.28;;;2.03;55.39
45991;BME280;31721;41.740;-88.000;2023-03-26T12:49:40;98875.75;;;2.02;55.40
45991;BME280;31721;41.740;-88.000;2023-03-26T12:52:55;98876.44;;;2.22;55.47
45991;BME280;31721;41.740;-88.000;2023-03-26T12:55:38;98878.57;;;2.18;55.55
45991;BME280;31721;41.740;-88.000;2023-03-26T12:58:20;98880.82;;;2.43;55.54
45991;BME280;31721;41.740;-88.000;2023-03-26T13:01:00;98875.16;;;2.32;55.44
45991;BME280;31721;41.740;-88.000;2023-03-26T13:03:39;98867.65;;;2.50;55.78
45991;BME280;31721;41.740;-88.000;2023-03-26T13:06:23;98863.69;;;2.50;55.91
45991;BME280;31721;41.740;-88.000;2023-03-26T13:09:12;98866.63;;;2.53;55.83
45991;BME280;31721;41.740;-88.000;2023-03-26T13:11:53;98871.68;;;2.65;56.04
45991;BME280;31721;41.740;-88.000;2023-03-26T13:14:36;98877.76;;;2.77;55.73
45991;BME280;31721;41.740;-88.000;2023-03-26T13:17:12;98873.06;;;2.78;55.63
45991;BME280;31721;41.740;-88.000;2023-03-26T13:19:49;98868.35;;;2.87;55.65
45991;BME280;31721;41.740;-88.000;2023-03-26T13:22:25;98859.16;;;2.87;55.85
45991;BME280;31721;41.740;-88.000;2023-03-26T13:25:03;98850.32;;;3.04;55.85
45991;BME280;31721;41.740;-88.000;2023-03-26T13:27:45;98841.41;;;3.03;56.03
45991;BME280;31721;41.740;-88.000;2023-03-26T13:30:26;98845.82;;;3.14;56.24
45991;BME280;31721;41.740;-88.000;2023-03-26T13:33:06;98847.67;;;3.30;56.16
45991;BME280;31721;41.740;-88.000;2023-03-26T13:35:47;98842.08;;;3.32;56.09